Time;durP1;ratioP1;P1;durP2;ratioP2;P2;SDS_P1;SDS_P2;PMS_P1;PMS_P2;Temp;Humidity;BMP_temperature;BMP_pressure;BME280_temperature;BME280_humidity;BME280_pressure;Samples;Min_cycle;Max_cycle;Signal;HPM_P1;HPM_P2
2023/10/12 00:00:42;;;;;;;9.80;4.63;;;14.20;99.90;;;;;;5040965;28;20444;-79
2023/10/12 00:03:12;;;;;;;7.28;4.10;;;14.10;99.90;;;;;;5043151;28;20075;-79
2023/10/12 00:05:39;;;;;;;8.27;3.88;;;14.10;99.90;;;;;;5051291;28;20037;-79
2023/10/12 00:08:10;;;;;;;10.48;3.97;;;14.00;99.90;;;;;;5043534;28;20049;-79
2023/10/12 00:10:44;;;;;;;14.27;4.63;;;14.00;99.90;;;;;;5042351;28;20541;-78
2023/10/12 00:13:13;;;;;;;8.30;4.13;;;13.90;99.90;;;;;;5044387;28;20044;-78
2023/10/12 00:15:45;;;;;;;9.55;4.20;;;13.90;99.90;;;;;;5037937;28;20052;-78
2023/10/12 00:18:14;;;;;;;11.32;4.50;;;13.90;99.90;;;;;;5037362;28;20383;-78
2023/10/12 00:20:43;;;;;;;10.65;4.35;;;13.80;99.90;;;;;;5047348;28;20017;-78
2023/10/12 00:23:15;;;;;;;11.68;4.07;;;13.80;99.90;;;;;;5045064;28;20052;-78
2023/10/12 00:25:58;;;;;;;8.05;4.00;;;13.80;99.90;;;;;;5036372;28;20040;-78
2023/10/12 00:28:38;;;;;;;10.25;4.35;;;13.80;99.90;;;;;;5042995;28;20036;-78
2023/10/12 00:31:06;;;;;;;12.77;4.00;;;13.70;99.90;;;;;;5048518;28;20037;-80
2023/10/12 00:33:32;;;;;;;12.95;4.20;;;13.70;99.90;;;;;;5039395;28;20037;-79
2023/10/12 00:36:04;;;;;;;11.52;4.78;;;13.70;99.90;;;;;;5039952;28;20074;-79
2023/10/12 00:38:30;;;;;;;10.55;4.65;;;13.70;99.90;;;;;;5027771;28;20403;-80
2023/10/12 00:41:04;;;;;;;9.25;4.40;;;13.60;99.90;;;;;;5034175;28;20044;-78
2023/10/12 00:43:39;;;;;;;10.05;4.55;;;13.60;99.90;;;;;;5037252;28;20036;-78
2023/10/12 00:46:32;;;;;;;9.27;4.45;;;13.60;99.90;;;;;;5043806;28;20088;-78
2023/10/12 00:51:50;;;;;;;12.35;4.18;;;13.40;99.90;;;;;;5035419;28;20051;-78
2023/10/12 00:54:27;;;;;;;11.68;5.05;;;13.40;99.90;;;;;;5040407;28;20037;-79
2023/10/12 00:56:57;;;;;;;12.13;5.32;;;13.30;99.90;;;;;;5045213;28;20092;-78
2023/10/12 00:59:24;;;;;;;9.75;4.63;;;13.30;99.90;;;;;;5033402;28;20114;-78
2023/10/12 01:01:50;;;;;;;10.80;5.07;;;13.30;99.90;;;;;;5034479;28;20115;-78
2023/10/12 01:04:16;;;;;;;13.38;5.20;;;13.30;99.90;;;;;;5043251;28;20033;-79
2023/10/12 01:06:47;;;;;;;10.25;4.82;;;13.30;99.90;;;;;;5039920;28;20082;-78
2023/10/12 01:09:22;;;;;;;9.43;4.28;;;13.30;99.90;;;;;;5038616;28;20113;-78
2023/10/12 01:12:33;;;;;;;15.70;4.93;;;13.30;99.90;;;;;;5039740;28;20033;-78
2023/10/12 01:14:43;;;;;;;9.32;4.05;;;13.30;99.90;;;;;;5029771;28;20042;-79
2023/10/12 01:17:29;;;;;;;9.65;4.50;;;13.20;99.90;;;;;;5050856;28;20037;-79
2023/10/12 01:19:55;;;;;;;24.45;5.22;;;13.20;99.90;;;;;;5032596;28;20061;-79
2023/10/12 01:22:27;;;;;;;10.10;4.50;;;13.20;99.90;;;;;;5044063;28;20040;-79
2023/10/12 01:27:21;;;;;;;8.32;4.20;;;13.10;99.90;;;;;;5033671;28;20017;-78
2023/10/12 01:29:58;;;;;;;8.25;4.47;;;13.00;99.90;;;;;;5043693;28;20041;-80
2023/10/12 01:32:43;;;;;;;11.57;4.72;;;13.00;99.90;;;;;;5034482;28;20052;-80
2023/10/12 01:35:11;;;;;;;9.40;4.50;;;13.00;99.90;;;;;;5028016;28;20128;-79
2023/10/12 01:37:55;;;;;;;10.90;5.22;;;12.90;99.90;;;;;;5036949;28;20057;-79
2023/10/12 01:40:24;;;;;;;13.82;5.00;;;12.90;99.90;;;;;;5034476;28;20124;-79
2023/10/12 01:42:50;;;;;;;8.60;4.10;;;12.90;99.90;;;;;;5037177;28;20544;-78
2023/10/12 01:47:54;;;;;;;7.55;4.28;;;12.80;99.90;;;;;;5034496;28;20029;-78
2023/10/12 01:50:25;;;;;;;7.72;4.45;;;12.80;99.90;;;;;;5039151;28;20036;-79
2023/10/12 01:52:58;;;;;;;12.40;4.07;;;12.80;99.90;;;;;;5034169;28;20521;-78
2023/10/12 01:55:30;;;;;;;7.95;4.22;;;12.80;99.90;;;;;;5046997;28;20064;-78
2023/10/12 01:57:57;;;;;;;8.55;4.18;;;12.80;99.90;;;;;;5040068;28;20056;-79
2023/10/12 02:00:27;;;;;;;7.78;4.25;;;12.80;99.90;;;;;;5047577;28;20022;-79
2023/10/12 02:03:03;;;;;;;8.63;4.10;;;12.80;99.90;;;;;;5041894;28;20025;-79
2023/10/12 02:05:33;;;;;;;8.48;4.65;;;12.90;99.90;;;;;;5024752;28;20044;-79
2023/10/12 02:08:05;;;;;;;7.55;4.13;;;12.90;99.90;;;;;;5040788;28;20029;-79
2023/10/12 02:10:42;;;;;;;9.07;4.20;;;12.90;99.90;;;;;;5034137;28;20505;-78
2023/10/12 02:13:10;;;;;;;8.48;3.78;;;12.90;99.90;;;;;;5040484;28;20037;-78
2023/10/12 02:15:37;;;;;;;8.88;4.32;;;12.90;99.90;;;;;;5040266;28;20052;-79
2023/10/12 02:18:10;;;;;;;13.20;5.10;;;13.00;99.90;;;;;;5034261;28;20029;-79
2023/10/12 02:20:42;;;;;;;15.27;4.50;;;13.10;99.90;;;;;;5035526;28;20060;-79
2023/10/12 02:23:12;;;;;;;6.88;4.43;;;13.20;99.90;;;;;;5047126;28;20029;-78
2023/10/12 02:25:50;;;;;;;9.18;4.82;;;13.20;99.90;;;;;;5044562;28;20032;-78
2023/10/12 02:28:22;;;;;;;8.55;5.13;;;13.30;99.90;;;;;;5031168;28;20068;-78
2023/10/12 02:30:55;;;;;;;10.55;4.45;;;13.30;99.90;;;;;;5038782;28;20033;-79
2023/10/12 02:33:27;;;;;;;8.63;4.85;;;13.40;99.90;;;;;;5042064;28;20063;-80
2023/10/12 02:35:54;;;;;;;12.30;4.78;;;13.40;99.90;;;;;;5033428;28;20044;-81
2023/10/12 02:38:21;;;;;;;9.52;4.30;;;13.30;99.90;;;;;;5035424;28;20505;-79
2023/10/12 02:40:57;;;;;;;13.15;5.38;;;13.30;99.90;;;;;;5035639;28;20026;-80
2023/10/12 02:43:27;;;;;;;5.55;4.25;;;13.20;99.90;;;;;;5039234;28;20034;-79
2023/10/12 02:45:55;;;;;;;9.75;4.70;;;13.20;99.90;;;;;;5034258;28;20516;-79
2023/10/12 02:48:24;;;;;;;7.85;4.30;;;13.10;99.90;;;;;;5024638;28;20048;-79
2023/10/12 02:51:01;;;;;;;10.15;5.00;;;13.10;99.90;;;;;;5041487;28;20092;-79
2023/10/12 02:53:30;;;;;;;10.95;5.28;;;13.00;99.90;;;;;;5031235;28;20128;-78
2023/10/12 02:56:00;;;;;;;8.77;5.05;;;13.00;99.90;;;;;;5037954;28;20041;-78
2023/10/12 02:58:30;;;;;;;7.78;4.50;;;13.00;99.90;;;;;;5041943;28;20408;-78
2023/10/12 03:01:16;;;;;;;13.75;4.82;;;12.90;99.90;;;;;;5043083;28;20030;-79
2023/10/12 03:03:55;;;;;;;13.57;5.43;;;12.90;99.90;;;;;;5036946;28;20026;-78
2023/10/12 03:06:23;;;;;;;8.77;4.60;;;12.90;99.90;;;;;;5042496;28;20672;-78
2023/10/12 03:11:31;;;;;;;11.38;5.50;;;12.80;99.90;;;;;;5039697;28;20035;-79
2023/10/12 03:14:01;;;;;;;11.25;4.90;;;12.80;99.90;;;;;;5030675;28;20059;-78
2023/10/12 03:16:34;;;;;;;10.73;4.63;;;12.80;99.90;;;;;;5047066;28;20028;-78
2023/10/12 03:19:06;;;;;;;9.82;5.22;;;12.80;99.90;;;;;;5040831;28;20041;-78
2023/10/12 03:21:33;;;;;;;13.38;5.43;;;12.90;99.90;;;;;;5035892;28;20041;-78
2023/10/12 03:24:23;;;;;;;8.02;5.15;;;12.90;99.90;;;;;;5043458;28;20056;-78
2023/10/12 03:27:10;;;;;;;10.73;5.63;;;12.90;99.90;;;;;;5035032;28;20055;-79
2023/10/12 03:29:43;;;;;;;11.45;4.80;;;12.90;99.90;;;;;;5032955;28;20116;-78
2023/10/12 03:32:16;;;;;;;9.85;4.43;;;12.90;99.90;;;;;;5038522;28;20095;-78
2023/10/12 03:37:14;;;;;;;13.73;4.25;;;12.80;99.90;;;;;;5037241;28;20094;-78
2023/10/12 03:40:49;;;;;;;10.85;4.78;;;12.80;99.90;;;;;;5040879;28;20600;-78
2023/10/12 03:45:24;;;;;;;14.25;5.68;;;12.80;99.90;;;;;;5037867;28;20029;-78
2023/10/12 03:48:04;;;;;;;;;;;13.00;99.90;;;;;;5036862;28;20053;-79
2023/10/12 03:50:57;;;;;;;10.60;4.30;;;13.00;99.90;;;;;;5041203;28;19927;-78
2023/10/12 03:53:20;;;;;;;10.27;4.65;;;13.00;99.90;;;;;;5049163;28;20552;-79
2023/10/12 03:55:49;;;;;;;13.40;4.82;;;13.10;99.90;;;;;;5035014;28;20084;-78
2023/10/12 03:58:23;;;;;;;10.27;4.60;;;13.10;99.90;;;;;;5037468;28;20061;-79
2023/10/12 04:01:22;;;;;;;9.63;4.18;;;13.20;99.90;;;;;;5045539;28;20040;-78
2023/10/12 04:03:39;;;;;;;10.13;4.20;;;13.20;99.90;;;;;;5037502;28;20034;-78
2023/10/12 04:06:15;;;;;;;9.60;4.03;;;13.30;99.90;;;;;;5039492;28;20033;-79
2023/10/12 04:08:53;;;;;;;7.47;4.00;;;13.40;99.90;;;;;;5034057;28;20029;-78
2023/10/12 04:14:43;;;;;;;8.85;3.78;;;13.40;99.90;;;;;;5043891;28;20752;-78
2023/10/12 04:17:06;;;;;;;6.95;4.30;;;13.50;99.90;;;;;;5044460;28;20051;-78
2023/10/12 04:19:34;;;;;;;9.65;4.05;;;13.60;99.90;;;;;;5047042;28;20533;-79
2023/10/12 04:25:12;;;;;;;9.45;4.18;;;13.80;99.90;;;;;;5021165;28;20049;-78
2023/10/12 04:27:39;;;;;;;7.18;3.67;;;13.90;99.90;;;;;;5042940;28;20734;-78
2023/10/12 04:32:57;;;;;;;9.95;3.97;;;13.90;99.90;;;;;;5047184;28;20067;-78
2023/10/12 04:35:44;;;;;;;7.68;4.03;;;14.00;99.90;;;;;;5048395;28;20032;-78
2023/10/12 04:38:38;;;;;;;7.53;4.05;;;14.00;99.90;;;;;;5038608;28;20405;-78
2023/10/12 04:43:52;;;;;;;7.65;4.28;;;14.00;99.90;;;;;;5045693;28;20037;-78
2023/10/12 04:49:12;;;;;;;8.35;4.13;;;14.10;99.90;;;;;;5038906;28;20095;-78
2023/10/12 04:51:40;;;;;;;8.18;4.47;;;14.20;99.90;;;;;;5045823;28;20112;-79
2023/10/12 04:54:17;;;;;;;9.90;4.25;;;14.20;99.90;;;;;;5050837;28;20060;-78
2023/10/12 04:56:57;;;;;;;9.23;4.65;;;14.20;99.90;;;;;;5044949;28;20030;-78
2023/10/12 04:59:29;;;;;;;9.80;4.10;;;14.20;99.90;;;;;;5039448;28;20033;-78
2023/10/12 05:04:36;;;;;;;8.07;3.97;;;14.20;99.90;;;;;;5041207;28;20044;-78
2023/10/12 05:09:51;;;;;;;9.73;4.25;;;14.10;99.90;;;;;;5048385;28;20079;-78
2023/10/12 05:12:18;;;;;;;7.30;3.57;;;14.00;99.90;;;;;;5042013;28;20033;-78
2023/10/12 05:14:44;;;;;;;10.82;4.55;;;14.00;99.90;;;;;;5039298;28;20264;-78
2023/10/12 05:17:10;;;;;;;10.27;4.25;;;14.00;99.90;;;;;;5044734;28;20026;-78
2023/10/12 05:19:36;;;;;;;6.50;4.47;;;14.00;99.90;;;;;;5046853;28;20101;-78
2023/10/12 05:22:03;;;;;;;10.30;3.88;;;14.00;99.90;;;;;;5033829;28;20061;-78
2023/10/12 05:24:28;;;;;;;9.35;3.78;;;13.90;99.90;;;;;;5041835;28;20025;-79
2023/10/12 05:26:58;;;;;;;9.65;4.68;;;13.90;99.90;;;;;;5047486;28;20029;-78
2023/10/12 05:32:05;;;;;;;7.40;3.55;;;13.90;99.90;;;;;;5036423;28;20041;-78
2023/10/12 05:37:09;;;;;;;11.23;4.53;;;13.90;99.90;;;;;;5050696;28;20688;-78
2023/10/12 05:39:46;;;;;;;9.60;4.88;;;13.90;99.90;;;;;;5036307;28;20033;-78
2023/10/12 05:42:14;;;;;;;9.45;4.00;;;13.90;99.90;;;;;;5039886;28;20029;-79
2023/10/12 05:44:43;;;;;;;10.27;4.97;;;13.90;99.90;;;;;;5050433;28;20052;-79
2023/10/12 05:47:12;;;;;;;6.18;3.90;;;13.90;99.90;;;;;;5035414;28;20585;-78
2023/10/12 05:49:41;;;;;;;12.35;4.35;;;13.90;99.90;;;;;;5033136;28;20033;-79
2023/10/12 05:52:08;;;;;;;9.60;4.32;;;14.00;99.90;;;;;;5043971;28;20049;-79
2023/10/12 05:54:38;;;;;;;9.90;4.55;;;14.00;99.90;;;;;;5035132;28;20067;-80
2023/10/12 05:57:18;;;;;;;8.00;4.05;;;14.00;99.90;;;;;;5026975;28;20166;-79
2023/10/12 05:59:48;;;;;;;8.98;4.15;;;14.10;99.90;;;;;;5036314;28;20083;-78
2023/10/12 06:02:17;;;;;;;6.47;4.35;;;14.00;99.90;;;;;;5042564;28;20080;-78
2023/10/12 06:04:43;;;;;;;12.98;4.55;;;14.00;99.90;;;;;;5042955;28;20031;-78
2023/10/12 06:07:10;;;;;;;10.13;4.18;;;14.00;99.90;;;;;;5042009;28;20029;-79
2023/10/12 06:09:37;;;;;;;8.60;4.47;;;14.10;99.90;;;;;;5047392;28;20110;-79
2023/10/12 06:12:07;;;;;;;6.68;4.47;;;14.10;99.90;;;;;;5040524;28;20045;-79
2023/10/12 06:14:38;;;;;;;7.70;3.97;;;14.10;99.90;;;;;;5037858;28;20048;-79
2023/10/12 06:17:21;;;;;;;7.85;4.28;;;14.10;99.90;;;;;;5039325;28;20036;-79
2023/10/12 06:19:54;;;;;;;11.60;4.57;;;14.10;99.90;;;;;;5038371;28;20037;-79
2023/10/12 06:22:20;;;;;;;7.60;4.43;;;14.10;99.90;;;;;;5039505;28;20021;-80
2023/10/12 06:24:49;;;;;;;11.82;5.38;;;14.10;99.90;;;;;;5027574;28;20029;-80
2023/10/12 06:29:54;;;;;;;7.43;4.45;;;14.20;99.90;;;;;;5039017;28;20041;-76
2023/10/12 06:32:33;;;;;;;9.57;4.55;;;14.20;99.90;;;;;;5028113;28;20437;-77
2023/10/12 06:37:49;;;;;;;7.80;4.28;;;14.30;99.90;;;;;;5032941;28;20108;-77
2023/10/12 06:45:51;;;;;;;9.63;4.60;;;14.50;99.90;;;;;;5011251;28;20041;-78
2023/10/12 06:49:07;;;;;;;8.63;4.97;;;14.60;99.90;;;;;;5041884;28;20037;-77
2023/10/12 06:51:11;;;;;;;8.25;4.55;;;14.60;99.90;;;;;;5022273;28;20048;-78
2023/10/12 06:53:38;;;;;;;9.73;4.30;;;14.80;99.90;;;;;;5036386;28;20034;-77
2023/10/12 06:58:41;;;;;;;10.25;4.57;;;15.10;99.90;;;;;;5020617;28;20026;-77
2023/10/12 07:01:19;;;;;;;6.15;4.25;;;15.30;99.90;;;;;;5025366;28;20489;-76
2023/10/12 07:03:48;;;;;;;7.88;4.72;;;15.50;99.90;;;;;;5033488;28;20041;-76
2023/10/12 07:06:15;;;;;;;8.18;4.05;;;15.60;99.90;;;;;;5028917;28;20053;-77
2023/10/12 07:08:43;;;;;;;7.88;4.30;;;15.80;99.90;;;;;;5021254;28;20053;-77
2023/10/12 07:11:11;;;;;;;8.73;3.63;;;15.90;99.90;;;;;;5031325;28;20029;-78
2023/10/12 07:13:41;;;;;;;7.00;3.80;;;16.00;99.90;;;;;;5037982;28;20037;-77
2023/10/12 07:16:10;;;;;;;8.63;4.25;;;16.00;99.90;;;;;;5022703;28;20072;-79
2023/10/12 07:18:43;;;;;;;5.28;3.83;;;16.00;99.90;;;;;;5018277;28;20042;-77
2023/10/12 07:21:20;;;;;;;8.73;4.35;;;16.00;99.90;;;;;;5025676;28;20044;-77
2023/10/12 07:23:52;;;;;;;8.60;4.38;;;16.00;99.90;;;;;;5018824;28;20095;-76
2023/10/12 07:26:23;;;;;;;6.80;3.97;;;16.00;99.90;;;;;;5011939;28;20036;-76
2023/10/12 07:28:55;;;;;;;12.27;3.80;;;16.00;99.90;;;;;;5034774;28;20385;-77
2023/10/12 07:31:37;;;;;;;8.13;3.75;;;16.00;99.90;;;;;;5024749;28;20707;-77
2023/10/12 07:34:05;;;;;;;10.25;4.32;;;16.00;99.90;;;;;;5029384;28;20075;-76
2023/10/12 07:39:22;;;;;;;11.70;4.93;;;15.90;99.90;;;;;;5035094;28;20087;-77
2023/10/12 07:41:57;;;;;;;6.60;3.85;;;15.90;99.90;;;;;;5040906;28;20053;-77
2023/10/12 07:44:27;;;;;;;11.00;4.00;;;15.90;99.90;;;;;;5034019;28;20037;-77
2023/10/12 07:46:57;;;;;;;9.85;3.60;;;15.80;99.90;;;;;;5029567;28;20037;-77
2023/10/12 07:49:39;;;;;;;7.75;4.15;;;15.80;99.90;;;;;;5035555;28;20120;-77
2023/10/12 07:54:50;;;;;;;5.45;3.88;;;15.70;99.90;;;;;;5031914;28;20048;-77
2023/10/12 07:57:20;;;;;;;7.68;4.78;;;15.60;99.90;;;;;;5040715;28;20067;-76
2023/10/12 07:59:58;;;;;;;5.85;3.75;;;15.60;99.90;;;;;;5025654;28;20022;-77
2023/10/12 08:05:57;;;;;;;8.95;4.68;;;15.50;99.90;;;;;;5038237;28;20029;-76
2023/10/12 08:19:09;;;;;;;9.10;4.15;;;15.50;99.90;;;;;;5030789;28;20644;-78
2023/10/12 08:21:38;;;;;;;11.27;4.95;;;15.50;99.90;;;;;;5030645;28;20041;-77
2023/10/12 08:37:17;;;;;;;6.57;4.45;;;15.50;99.90;;;;;;5028358;28;20525;-79
2023/10/12 08:40:07;;;;;;;7.88;3.65;;;15.60;99.90;;;;;;5034104;28;20021;-79
2023/10/12 08:45:09;;;;;;;10.25;4.18;;;15.50;99.90;;;;;;5032392;28;20025;-80
2023/10/12 08:50:47;;;;;;;8.13;4.70;;;15.40;99.90;;;;;;5042060;28;20033;-79
2023/10/12 08:53:03;;;;;;;7.68;4.18;;;15.50;99.90;;;;;;5023468;28;20041;-79
2023/10/12 08:55:31;;;;;;;7.05;4.38;;;15.60;99.90;;;;;;5027653;28;20042;-78
2023/10/12 08:58:13;;;;;;;8.75;5.18;;;15.70;99.90;;;;;;5030429;28;20025;-78
2023/10/12 09:01:31;;;;;;;10.48;5.25;;;15.80;99.90;;;;;;5033930;28;20025;-79
2023/10/12 09:03:37;;;;;;;10.95;4.82;;;15.90;99.90;;;;;;5022647;28;20604;-77
2023/10/12 09:06:13;;;;;;;11.38;4.32;;;16.00;99.90;;;;;;5033928;28;20068;-78
2023/10/12 09:08:39;;;;;;;9.48;4.43;;;16.10;99.90;;;;;;5022034;28;20038;-79
2023/10/12 09:13:36;;;;;;;8.18;4.32;;;16.20;99.90;;;;;;5030583;28;20041;-78
2023/10/12 09:16:15;;;;;;;9.75;4.53;;;16.30;99.90;;;;;;5037323;28;20037;-79
2023/10/12 09:18:44;;;;;;;8.25;4.53;;;16.30;99.90;;;;;;5030218;28;20107;-77
2023/10/12 09:23:50;;;;;;;7.55;4.57;;;16.40;99.90;;;;;;5031330;28;20116;-78
2023/10/12 09:26:30;;;;;;;8.48;4.18;;;16.40;99.90;;;;;;5036714;28;20404;-78
2023/10/12 09:36:43;;;;;;;7.43;4.85;;;16.40;99.90;;;;;;5029627;28;20030;-78
2023/10/12 09:39:14;;;;;;;9.50;4.38;;;16.40;99.90;;;;;;5033746;28;20037;-78
2023/10/12 09:41:42;;;;;;;7.82;4.30;;;16.50;99.90;;;;;;5036393;28;20042;-78
2023/10/12 09:44:11;;;;;;;7.90;5.05;;;16.50;99.90;;;;;;5030614;28;20085;-78
2023/10/12 09:46:49;;;;;;;8.40;5.40;;;16.60;99.90;;;;;;5029830;28;20064;-78
2023/10/12 09:49:21;;;;;;;6.40;4.20;;;16.60;99.90;;;;;;5033734;28;20041;-78
2023/10/12 09:51:54;;;;;;;15.77;4.82;;;16.60;99.90;;;;;;5037131;28;20046;-78
2023/10/12 09:54:28;;;;;;;7.40;4.35;;;16.60;99.90;;;;;;5033768;28;20675;-78
2023/10/12 09:56:59;;;;;;;7.60;4.53;;;16.70;99.90;;;;;;5032407;28;20112;-78
2023/10/12 09:59:29;;;;;;;12.90;5.35;;;16.70;99.90;;;;;;5029803;28;20055;-78
2023/10/12 10:04:46;;;;;;;10.40;4.57;;;16.70;99.90;;;;;;5037151;28;20389;-77
2023/10/12 10:07:25;;;;;;;8.32;4.53;;;16.70;99.90;;;;;;5034016;28;20040;-79
2023/10/12 10:09:54;;;;;;;7.93;4.45;;;16.80;99.90;;;;;;5032584;28;20090;-80
2023/10/12 10:12:22;;;;;;;9.68;4.53;;;16.80;99.90;;;;;;5022484;28;20567;-80
2023/10/12 10:14:57;;;;;;;10.65;4.65;;;16.80;99.90;;;;;;5037458;28;20032;-79
2023/10/12 10:17:46;;;;;;;9.65;4.82;;;16.90;99.90;;;;;;5028707;28;20044;-80
2023/10/12 10:20:46;;;;;;;12.20;4.50;;;17.00;99.90;;;;;;5027519;28;20045;-79
2023/10/12 10:23:12;;;;;;;10.60;4.60;;;17.00;99.90;;;;;;5025577;28;20136;-78
2023/10/12 10:25:50;;;;;;;6.85;4.28;;;17.10;99.90;;;;;;5031719;28;20044;-79
2023/10/12 10:28:28;;;;;;;10.13;4.50;;;17.10;99.90;;;;;;5034424;28;20106;-80
2023/10/12 10:30:59;;;;;;;8.43;4.35;;;17.10;99.90;;;;;;5031431;28;20518;-78
2023/10/12 10:33:26;;;;;;;10.00;4.20;;;17.10;99.90;;;;;;5039090;28;20079;-78
2023/10/12 10:36:00;;;;;;;9.93;4.30;;;17.10;99.90;;;;;;5025701;28;20449;-79
2023/10/12 10:38:35;;;;;;;11.38;5.75;;;17.10;99.90;;;;;;5027674;28;20041;-79
2023/10/12 10:41:17;;;;;;;8.43;4.72;;;17.10;99.90;;;;;;5033289;28;20039;-78
2023/10/12 10:43:44;;;;;;;9.88;4.57;;;17.00;99.90;;;;;;5036838;28;20029;-79
2023/10/12 10:46:10;;;;;;;8.02;4.25;;;16.90;99.90;;;;;;5033481;28;20094;-79
2023/10/12 10:48:38;;;;;;;8.23;4.07;;;16.90;99.90;;;;;;5030117;28;20037;-79
2023/10/12 10:51:11;;;;;;;10.18;5.00;;;16.80;99.90;;;;;;5030534;28;20052;-77
2023/10/12 10:53:41;;;;;;;7.78;4.90;;;16.80;99.90;;;;;;5039887;28;20026;-79
2023/10/12 10:56:16;;;;;;;10.75;4.93;;;16.70;99.90;;;;;;5022813;28;20033;-79
2023/10/12 10:58:46;;;;;;;9.88;4.78;;;16.60;99.90;;;;;;5030593;28;20139;-78
2023/10/12 11:01:15;;;;;;;10.52;4.90;;;16.50;99.90;;;;;;5049253;28;20040;-79
2023/10/12 11:03:46;;;;;;;7.63;5.05;;;16.40;99.90;;;;;;5034434;28;20026;-79
2023/10/12 11:06:24;;;;;;;9.85;5.22;;;16.30;99.90;;;;;;5040353;28;20048;-78
2023/10/12 11:09:09;;;;;;;11.20;5.60;;;16.20;99.90;;;;;;5036519;28;20038;-79
2023/10/12 11:11:38;;;;;;;14.18;5.18;;;16.10;99.90;;;;;;5034043;28;20034;-78
2023/10/12 11:14:08;;;;;;;8.27;4.53;;;16.00;99.90;;;;;;5044165;28;20025;-79
2023/10/12 11:16:36;;;;;;;11.95;5.05;;;15.90;99.90;;;;;;5034393;28;20030;-81
2023/10/12 11:19:08;;;;;;;10.90;5.18;;;15.70;99.90;;;;;;5038628;28;20048;-79
2023/10/12 11:21:34;;;;;;;10.95;5.85;;;15.70;99.90;;;;;;5038592;28;20037;-79
2023/10/12 11:24:01;;;;;;;12.52;5.70;;;15.60;99.90;;;;;;5042429;28;20038;-78
2023/10/12 11:26:28;;;;;;;11.00;5.97;;;15.60;99.90;;;;;;5039810;28;20484;-79
2023/10/12 11:29:04;;;;;;;12.38;5.25;;;15.60;99.90;;;;;;5034132;28;20033;-79
2023/10/12 11:31:30;;;;;;;9.63;5.35;;;15.60;99.90;;;;;;5037095;28;20102;-79
2023/10/12 11:33:58;;;;;;;10.20;5.75;;;15.70;99.90;;;;;;5035352;28;20026;-81
2023/10/12 11:36:25;;;;;;;10.30;6.03;;;15.70;99.90;;;;;;5035164;28;20037;-79
2023/10/12 11:39:02;;;;;;;9.40;5.50;;;15.70;99.90;;;;;;5037419;28;20056;-79
2023/10/12 11:41:28;;;;;;;10.45;5.57;;;15.80;99.90;;;;;;5038819;28;20025;-81
2023/10/12 11:43:57;;;;;;;7.90;5.60;;;15.90;99.90;;;;;;5034708;28;20026;-79
2023/10/12 11:46:24;;;;;;;8.13;5.45;;;16.00;99.90;;;;;;5029748;28;20017;-78
2023/10/12 11:49:04;;;;;;;8.48;6.35;;;16.10;99.90;;;;;;5035075;28;20033;-79
2023/10/12 11:51:30;;;;;;;8.30;5.97;;;16.20;99.90;;;;;;5023787;28;20029;-78
2023/10/12 11:53:57;;;;;;;10.98;5.80;;;16.30;99.90;;;;;;5033649;28;20382;-78
2023/10/12 11:56:23;;;;;;;15.30;6.38;;;16.30;99.90;;;;;;5029222;28;20029;-79
2023/10/12 11:58:55;;;;;;;8.15;5.90;;;16.40;99.90;;;;;;5029688;28;20578;-78
2023/10/12 12:01:33;;;;;;;12.77;6.88;;;16.40;99.90;;;;;;5031160;28;20802;-81
2023/10/12 12:04:02;;;;;;;9.15;6.07;;;16.40;99.90;;;;;;5022732;28;20030;-78
2023/10/12 12:06:32;;;;;;;10.05;5.70;;;16.40;99.90;;;;;;5031994;28;20038;-78
2023/10/12 12:08:59;;;;;;;13.43;6.57;;;16.40;99.90;;;;;;5032713;28;20052;-80
2023/10/12 12:11:31;;;;;;;9.38;6.25;;;16.50;99.90;;;;;;5034436;28;20093;-78
2023/10/12 12:13:57;;;;;;;13.05;6.68;;;16.50;99.90;;;;;;5034098;28;20566;-78
2023/10/12 12:16:23;;;;;;;9.25;5.68;;;16.60;99.90;;;;;;5030587;28;20168;-79
2023/10/12 12:18:51;;;;;;;11.02;6.40;;;16.60;99.90;;;;;;5038528;28;20084;-79
2023/10/12 12:21:26;;;;;;;11.45;5.88;;;16.60;99.90;;;;;;5033590;28;20115;-78
2023/10/12 12:23:56;;;;;;;8.88;5.38;;;16.70;99.90;;;;;;5031143;28;20029;-78
2023/10/12 12:26:24;;;;;;;12.38;6.47;;;16.70;99.90;;;;;;5035619;28;20575;-76
2023/10/12 12:29:02;;;;;;;9.05;5.82;;;16.70;99.90;;;;;;5030568;28;20042;-78
2023/10/12 12:31:32;;;;;;;10.93;5.68;;;16.60;99.90;;;;;;5027833;28;20555;-80
2023/10/12 12:33:58;;;;;;;9.80;5.97;;;16.60;99.90;;;;;;5028777;28;20087;-79
2023/10/12 12:36:24;;;;;;;10.05;5.78;;;16.60;99.90;;;;;;5034709;28;20379;-78
2023/10/12 12:41:35;;;;;;;11.60;5.80;;;16.60;99.90;;;;;;5031086;28;20025;-78
2023/10/12 12:44:01;;;;;;;10.77;6.07;;;16.60;99.90;;;;;;5030703;28;20033;-80
2023/10/12 12:46:29;;;;;;;11.13;5.85;;;16.60;99.90;;;;;;5036821;28;20373;-77
2023/10/12 12:48:55;;;;;;;11.98;6.88;;;16.60;99.90;;;;;;5024549;28;20042;-77
2023/10/12 12:51:21;;;;;;;9.52;6.07;;;16.60;99.90;;;;;;5034691;28;20694;-78
2023/10/12 12:53:49;;;;;;;12.73;5.85;;;16.60;99.90;;;;;;5034888;28;20499;-77
2023/10/12 12:56:20;;;;;;;9.95;5.25;;;16.60;99.90;;;;;;5026221;28;20090;-77
2023/10/12 12:58:47;;;;;;;8.13;6.00;;;16.60;99.90;;;;;;5023945;28;20218;-78
2023/10/12 13:01:26;;;;;;;12.68;6.35;;;16.50;99.90;;;;;;5033293;28;20198;-77
2023/10/12 13:03:52;;;;;;;6.93;5.40;;;16.50;99.90;;;;;;5019641;28;20067;-80
2023/10/12 13:06:22;;;;;;;14.23;6.07;;;16.50;99.90;;;;;;5027572;28;20056;-78
2023/10/12 13:08:48;;;;;;;10.35;5.85;;;16.40;99.90;;;;;;5023422;28;20040;-78
2023/10/12 13:11:21;;;;;;;11.07;5.65;;;16.40;99.90;;;;;;5032796;28;20041;-77
2023/10/12 13:13:50;;;;;;;10.93;5.70;;;16.30;99.90;;;;;;5025507;28;20690;-78
2023/10/12 13:16:16;;;;;;;14.70;7.15;;;16.30;99.90;;;;;;5025288;28;20108;-78
2023/10/12 13:18:48;;;;;;;12.35;6.85;;;16.30;99.90;;;;;;5034960;28;20500;-77
2023/10/12 13:21:14;;;;;;;8.02;5.88;;;16.20;99.90;;;;;;5040959;28;20132;-77
2023/10/12 13:23:42;;;;;;;12.30;6.20;;;16.10;99.90;;;;;;5023230;28;20077;-78
2023/10/12 13:26:13;;;;;;;13.57;7.15;;;16.10;99.90;;;;;;5028803;28;20157;-78
2023/10/12 13:28:41;;;;;;;11.70;6.10;;;16.00;99.90;;;;;;5026155;28;20036;-78
2023/10/12 13:31:10;;;;;;;9.27;6.25;;;16.00;99.90;;;;;;5031793;28;20052;-78
2023/10/12 13:33:37;;;;;;;12.80;6.45;;;15.90;99.90;;;;;;5025489;28;20441;-78
2023/10/12 13:36:04;;;;;;;10.40;6.53;;;15.90;99.90;;;;;;5026714;28;20230;-80
2023/10/12 13:38:33;;;;;;;11.45;6.00;;;15.90;99.90;;;;;;5036529;28;20025;-79
2023/10/12 13:41:01;;;;;;;8.45;6.20;;;15.80;99.90;;;;;;5028217;28;20104;-78
2023/10/12 13:43:30;;;;;;;10.35;6.35;;;15.80;99.90;;;;;;5023521;28;20637;-78
2023/10/12 13:45:57;;;;;;;12.70;6.68;;;15.70;99.90;;;;;;5027986;28;20029;-79
2023/10/12 13:48:25;;;;;;;10.18;6.60;;;15.70;99.90;;;;;;5031929;28;20513;-78
2023/10/12 13:51:04;;;;;;;9.88;6.03;;;15.70;99.90;;;;;;5032097;28;20105;-79
2023/10/12 13:53:38;;;;;;;9.65;7.22;;;15.60;99.90;;;;;;5032655;28;20120;-78
2023/10/12 13:56:07;;;;;;;8.32;6.47;;;15.50;99.90;;;;;;5030745;28;20060;-77
2023/10/12 13:58:34;;;;;;;9.70;6.80;;;15.50;99.90;;;;;;5031563;28;20112;-78
2023/10/12 14:01:04;;;;;;;15.23;7.43;;;15.50;99.90;;;;;;5024703;28;20056;-80
2023/10/12 14:03:34;;;;;;;11.07;6.60;;;15.40;99.90;;;;;;5031264;28;20071;-79
2023/10/12 14:06:01;;;;;;;12.65;6.70;;;15.40;99.90;;;;;;5032330;28;20038;-80
2023/10/12 14:08:28;;;;;;;10.80;7.28;;;15.40;99.90;;;;;;5021475;28;20026;-78
2023/10/12 14:10:57;;;;;;;14.60;7.22;;;15.30;99.90;;;;;;5027160;28;20059;-80
2023/10/12 14:13:23;;;;;;;11.25;6.95;;;15.30;99.90;;;;;;5023241;28;20129;-80
2023/10/12 14:15:49;;;;;;;11.30;7.60;;;15.30;99.90;;;;;;5025005;28;20117;-79
2023/10/12 14:18:18;;;;;;;16.67;7.45;;;15.30;99.90;;;;;;5039911;28;20744;-77
2023/10/12 14:20:44;;;;;;;12.02;7.05;;;15.30;99.90;;;;;;5029968;28;20255;-78
2023/10/12 14:23:12;;;;;;;11.20;7.30;;;15.30;99.90;;;;;;5030538;28;20046;-78
2023/10/12 14:25:42;;;;;;;13.20;7.90;;;15.30;99.90;;;;;;5033675;28;20262;-78
2023/10/12 14:28:09;;;;;;;12.48;7.72;;;15.30;99.90;;;;;;5044672;28;20115;-80
2023/10/12 14:30:38;;;;;;;14.70;8.35;;;15.20;99.90;;;;;;5036217;28;20061;-78
2023/10/12 14:33:06;;;;;;;14.13;8.88;;;15.20;99.90;;;;;;5034582;28;20025;-78
2023/10/12 14:35:39;;;;;;;14.10;7.85;;;15.20;99.90;;;;;;5032831;28;20032;-78
2023/10/12 14:38:13;;;;;;;11.82;8.27;;;15.20;99.90;;;;;;5033605;28;20064;-79
2023/10/12 14:40:42;;;;;;;12.27;8.20;;;15.20;99.90;;;;;;5034018;28;20036;-78
2023/10/12 14:43:14;;;;;;;11.43;7.90;;;15.20;99.90;;;;;;5030056;28;20040;-78
2023/10/12 14:45:48;;;;;;;15.48;9.20;;;15.20;99.90;;;;;;5035627;28;20033;-80
2023/10/12 14:48:16;;;;;;;15.35;8.73;;;15.30;99.90;;;;;;5040825;28;20681;-80
2023/10/12 14:50:49;;;;;;;13.50;8.23;;;15.30;99.90;;;;;;5032243;28;20038;-80
2023/10/12 14:53:21;;;;;;;16.30;10.27;;;15.30;99.90;;;;;;5024753;28;20108;-80
2023/10/12 14:55:53;;;;;;;11.65;8.13;;;15.30;99.90;;;;;;5027971;28;20045;-79